sensor_id;sensor_type;location;lat;lon;timestamp;pressure;altitude;pressure_sealevel;temperature;humidity
43480;BME280;29067;35.492;-97.520;2023-02-01T00:01:09;98456.31;;;-7.17;35.91
43480;BME280;29067;35.492;-97.520;2023-02-01T00:03:38;98457.93;;;-8.29;37.08
43480;BME280;29067;35.492;-97.520;2023-02-01T00:06:06;98443.19;;;-7.87;36.04
43480;BME280;29067;35.492;-97.520;2023-02-01T00:08:40;98459.47;;;-7.43;36.31
43480;BME280;29067;35.492;-97.520;2023-02-01T00:11:10;98456.78;;;-6.98;35.84
43480;BME280;29067;35.492;-97.520;2023-02-01T00:13:44;98466.70;;;-8.59;36.48
43480;BME280;29067;35.492;-97.520;2023-02-01T00:16:13;98474.91;;;-7.69;35.73
43480;BME280;29067;35.492;-97.520;2023-02-01T00:18:42;98450.91;;;-6.82;35.85
43480;BME280;29067;35.492;-97.520;2023-02-01T00:21:11;98451.65;;;-7.40;35.11
43480;BME280;29067;35.492;-97.520;2023-02-01T00:23:44;98451.48;;;-7.05;35.16
43480;BME280;29067;35.492;-97.520;2023-02-01T00:26:15;98449.58;;;-7.96;35.92
43480;BME280;29067;35.492;-97.520;2023-02-01T00:28:44;98455.55;;;-7.76;35.20
43480;BME280;29067;35.492;-97.520;2023-02-01T00:31:12;98458.74;;;-8.33;35.76
43480;BME280;29067;35.492;-97.520;2023-02-01T00:33:40;98447.12;;;-7.98;35.58
43480;BME280;29067;35.492;-97.520;2023-02-01T00:36:10;98450.10;;;-7.93;36.27
43480;BME280;29067;35.492;-97.520;2023-02-01T00:38:39;98442.33;;;-8.43;35.85
43480;BME280;29067;35.492;-97.520;2023-02-01T00:41:10;98460.28;;;-7.45;35.85
43480;BME280;29067;35.492;-97.520;2023-02-01T00:43:39;98468.25;;;-7.71;37.24
43480;BME280;29067;35.492;-97.520;2023-02-01T00:46:08;98479.53;;;-8.13;35.68
43480;BME280;29067;35.492;-97.520;2023-02-01T00:48:37;98478.76;;;-8.98;37.37
43480;BME280;29067;35.492;-97.520;2023-02-01T00:51:07;98470.93;;;-7.27;36.37
43480;BME280;29067;35.492;-97.520;2023-02-01T00:53:37;98485.42;;;-6.86;35.67
43480;BME280;29067;35.492;-97.520;2023-02-01T00:56:09;98487.38;;;-8.75;36.27
43480;BME280;29067;35.492;-97.520;2023-02-01T00:58:43;98461.71;;;-6.52;35.55
43480;BME280;29067;35.492;-97.520;2023-02-01T01:01:14;98467.51;;;-7.35;36.54
43480;BME280;29067;35.492;-97.520;2023-02-01T01:03:50;98485.08;;;-8.10;36.80
43480;BME280;29067;35.492;-97.520;2023-02-01T01:06:20;98478.71;;;-7.85;36.43
43480;BME280;29067;35.492;-97.520;2023-02-01T01:08:51;98479.10;;;-7.99;36.31
43480;BME280;29067;35.492;-97.520;2023-02-01T01:11:22;98489.13;;;-8.27;37.49
43480;BME280;29067;35.492;-97.520;2023-02-01T01:13:51;98487.56;;;-9.18;36.79
43480;BME280;29067;35.492;-97.520;2023-02-01T01:16:23;98485.76;;;-9.40;37.51
43480;BME280;29067;35.492;-97.520;2023-02-01T01:18:58;98479.73;;;-8.60;37.16
43480;BME280;29067;35.492;-97.520;2023-02-01T01:21:32;98473.33;;;-7.35;36.99
43480;BME280;29067;35.492;-97.520;2023-02-01T01:24:03;98479.90;;;-7.11;36.56
43480;BME280;29067;35.492;-97.520;2023-02-01T01:26:31;98487.90;;;-7.96;36.25
43480;BME280;29067;35.492;-97.520;2023-02-01T01:28:59;98487.63;;;-7.24;36.77
43480;BME280;29067;35.492;-97.520;2023-02-01T01:31:28;98486.50;;;-8.47;35.93
43480;BME280;29067;35.492;-97.520;2023-02-01T01:33:58;98474.72;;;-8.52;37.13
43480;BME280;29067;35.492;-97.520;2023-02-01T01:36:28;98476.75;;;-7.77;36.64
43480;BME280;29067;35.492;-97.520;2023-02-01T01:38:56;98486.85;;;-8.93;37.65
43480;BME280;29067;35.492;-97.520;2023-02-01T01:41:26;98469.91;;;-9.10;37.29
43480;BME280;29067;35.492;-97.520;2023-02-01T01:43:59;98445.78;;;-8.20;37.71
43480;BME280;29067;35.492;-97.520;2023-02-01T01:46:34;98461.92;;;-8.20;37.29
43480;BME280;29067;35.492;-97.520;2023-02-01T01:49:06;98467.57;;;-8.30;37.62
43480;BME280;29067;35.492;-97.520;2023-02-01T01:51:40;98469.83;;;-7.99;37.18
43480;BME280;29067;35.492;-97.520;2023-02-01T01:54:13;98486.50;;;-9.79;38.06
43480;BME280;29067;35.492;-97.520;2023-02-01T01:56:43;98490.94;;;-8.16;37.45
43480;BME280;29067;35.492;-97.520;2023-02-01T01:59:12;98495.87;;;-7.89;36.96
43480;BME280;29067;35.492;-97.520;2023-02-01T02:01:46;98497.83;;;-6.14;35.65
43480;BME280;29067;35.492;-97.520;2023-02-01T02:04:15;98507.96;;;-6.38;36.11
43480;BME280;29067;35.492;-97.520;2023-02-01T02:06:54;98513.67;;;-7.29;36.25
43480;BME280;29067;35.492;-97.520;2023-02-01T02:09:24;98524.91;;;-7.86;36.47
43480;BME280;29067;35.492;-97.520;2023-02-01T02:11:58;98531.84;;;-6.40;36.02
43480;BME280;29067;35.492;-97.520;2023-02-01T02:14:26;98520.18;;;-7.00;35.47
43480;BME280;29067;35.492;-97.520;2023-02-01T02:17:33;98506.42;;;-7.59;37.47
43480;BME280;29067;35.492;-97.520;2023-02-01T02:20:22;98507.65;;;-7.32;37.32
43480;BME280;29067;35.492;-97.520;2023-02-01T02:25:43;98519.03;;;-7.82;38.55
43480;BME280;29067;35.492;-97.520;2023-02-01T02:28:31;98498.81;;;-7.71;37.30
43480;BME280;29067;35.492;-97.520;2023-02-01T02:31:23;98487.91;;;-7.87;36.91
43480;BME280;29067;35.492;-97.520;2023-02-01T02:33:57;98484.64;;;-7.94;37.37
43480;BME280;29067;35.492;-97.520;2023-02-01T02:36:34;98498.97;;;-6.55;36.83
43480;BME280;29067;35.492;-97.520;2023-02-01T02:39:08;98505.80;;;-7.98;37.24
43480;BME280;29067;35.492;-97.520;2023-02-01T02:41:50;98521.17;;;-7.15;36.41
43480;BME280;29067;35.492;-97.520;2023-02-01T02:44:27;98525.27;;;-8.43;36.73
43480;BME280;29067;35.492;-97.520;2023-02-01T02:47:05;98504.95;;;-7.38;37.33
43480;BME280;29067;35.492;-97.520;2023-02-01T02:49:43;98497.84;;;-7.10;36.86
43480;BME280;29067;35.492;-97.520;2023-02-01T02:52:20;98501.33;;;-6.30;36.26
43480;BME280;29067;35.492;-97.520;2023-02-01T02:54:49;98513.98;;;-7.64;36.45
43480;BME280;29067;35.492;-97.520;2023-02-01T02:57:26;98516.88;;;-7.65;37.35
43480;BME280;29067;35.492;-97.520;2023-02-01T02:59:58;98506.83;;;-7.96;36.95
43480;BME280;29067;35.492;-97.520;2023-02-01T03:02:28;98513.62;;;-6.71;35.22
43480;BME280;29067;35.492;-97.520;2023-02-01T03:04:57;98499.45;;;-7.31;36.54
43480;BME280;29067;35.492;-97.520;2023-02-01T03:08:02;98492.16;;;-6.79;35.76
43480;BME280;29067;35.492;-97.520;2023-02-01T03:10:42;98487.39;;;-7.13;35.85
43480;BME280;29067;35.492;-97.520;2023-02-01T03:13:25;98502.53;;;-7.08;35.38
43480;BME280;29067;35.492;-97.520;2023-02-01T03:16:04;98510.96;;;-8.07;37.12
43480;BME280;29067;35.492;-97.520;2023-02-01T03:18:44;98506.76;;;-6.88;36.44
43480;BME280;29067;35.492;-97.520;2023-02-01T03:21:17;98508.20;;;-6.13;35.13
43480;BME280;29067;35.492;-97.520;2023-02-01T03:23:50;98511.38;;;-6.15;35.00
43480;BME280;29067;35.492;-97.520;2023-02-01T03:26:28;98496.35;;;-4.03;33.86
43480;BME280;29067;35.492;-97.520;2023-02-01T03:29:08;98499.98;;;-6.91;34.41
43480;BME280;29067;35.492;-97.520;2023-02-01T03:31:37;98494.15;;;-5.87;35.07
43480;BME280;29067;35.492;-97.520;2023-02-01T03:34:05;98492.07;;;-6.70;34.36
43480;BME280;29067;35.492;-97.520;2023-02-01T03:36:37;98508.05;;;-5.63;33.98
43480;BME280;29067;35.492;-97.520;2023-02-01T03:39:11;98509.67;;;-5.25;33.92
43480;BME280;29067;35.492;-97.520;2023-02-01T03:41:45;98513.41;;;-4.97;33.23
43480;BME280;29067;35.492;-97.520;2023-02-01T03:44:20;98524.37;;;-5.80;33.76
43480;BME280;29067;35.492;-97.520;2023-02-01T03:46:54;98526.24;;;-7.09;34.34
43480;BME280;29067;35.492;-97.520;2023-02-01T03:49:27;98521.13;;;-5.89;33.42
43480;BME280;29067;35.492;-97.520;2023-02-01T03:51:59;98515.73;;;-4.78;33.30
43480;BME280;29067;35.492;-97.520;2023-02-01T03:54:28;98515.77;;;-4.41;33.26
43480;BME280;29067;35.492;-97.520;2023-02-01T03:57:09;98516.55;;;-4.81;32.58
43480;BME280;29067;35.492;-97.520;2023-02-01T03:59:40;98528.47;;;-6.36;34.73
43480;BME280;29067;35.492;-97.520;2023-02-01T04:02:08;98524.37;;;-6.77;35.10
43480;BME280;29067;35.492;-97.520;2023-02-01T04:04:41;98525.03;;;-6.73;34.89
43480;BME280;29067;35.492;-97.520;2023-02-01T04:07:09;98519.55;;;-5.77;35.34
43480;BME280;29067;35.492;-97.520;2023-02-01T04:09:38;98512.90;;;-6.54;35.75
43480;BME280;29067;35.492;-97.520;2023-02-01T04:12:07;98505.36;;;-5.94;34.78
43480;BME280;29067;35.492;-97.520;2023-02-01T04:14:36;98497.87;;;-7.37;36.20
43480;BME280;29067;35.492;-97.520;2023-02-01T04:17:14;98503.48;;;-6.53;35.72
43480;BME280;29067;35.492;-97.520;2023-02-01T04:19:48;98487.96;;;-7.03;35.13
43480;BME280;29067;35.492;-97.520;2023-02-01T04:22:17;98488.28;;;-5.19;34.54
43480;BME280;29067;35.492;-97.520;2023-02-01T04:24:45;98496.48;;;-5.84;34.74
43480;BME280;29067;35.492;-97.520;2023-02-01T04:27:13;98488.25;;;-4.77;34.26
43480;BME280;29067;35.492;-97.520;2023-02-01T04:29:41;98502.90;;;-5.85;34.94
43480;BME280;29067;35.492;-97.520;2023-02-01T04:32:09;98508.73;;;-6.05;34.82
43480;BME280;29067;35.492;-97.520;2023-02-01T04:34:37;98510.67;;;-6.71;35.70
43480;BME280;29067;35.492;-97.520;2023-02-01T04:37:06;98509.27;;;-7.06;35.71
43480;BME280;29067;35.492;-97.520;2023-02-01T04:39:34;98502.41;;;-7.48;35.11
43480;BME280;29067;35.492;-97.520;2023-02-01T04:42:02;98502.66;;;-7.62;37.01
43480;BME280;29067;35.492;-97.520;2023-02-01T04:44:31;98503.56;;;-7.63;36.90
43480;BME280;29067;35.492;-97.520;2023-02-01T04:46:59;98529.16;;;-8.03;36.71
43480;BME280;29067;35.492;-97.520;2023-02-01T04:49:27;98547.36;;;-6.26;35.15
43480;BME280;29067;35.492;-97.520;2023-02-01T04:51:56;98557.40;;;-5.29;34.78
43480;BME280;29067;35.492;-97.520;2023-02-01T04:54:24;98558.31;;;-5.45;34.15
43480;BME280;29067;35.492;-97.520;2023-02-01T04:56:57;98554.22;;;-4.72;33.97
43480;BME280;29067;35.492;-97.520;2023-02-01T04:59:25;98567.95;;;-5.94;34.85
43480;BME280;29067;35.492;-97.520;2023-02-01T05:01:54;98578.49;;;-6.18;34.84
43480;BME280;29067;35.492;-97.520;2023-02-01T05:04:22;98570.63;;;-7.09;35.23
43480;BME280;29067;35.492;-97.520;2023-02-01T05:06:50;98576.98;;;-7.76;35.87
43480;BME280;29067;35.492;-97.520;2023-02-01T05:09:18;98584.26;;;-5.66;34.89
43480;BME280;29067;35.492;-97.520;2023-02-01T05:11:47;98580.09;;;-5.58;34.56
43480;BME280;29067;35.492;-97.520;2023-02-01T05:14:15;98581.23;;;-5.52;34.99
43480;BME280;29067;35.492;-97.520;2023-02-01T05:16:43;98568.88;;;-8.36;36.59
43480;BME280;29067;35.492;-97.520;2023-02-01T05:19:13;98572.68;;;-6.67;36.11
43480;BME280;29067;35.492;-97.520;2023-02-01T05:21:41;98585.48;;;-8.09;36.08
43480;BME280;29067;35.492;-97.520;2023-02-01T05:24:10;98571.69;;;-6.41;35.44
43480;BME280;29067;35.492;-97.520;2023-02-01T05:26:39;98563.79;;;-6.90;35.24
43480;BME280;29067;35.492;-97.520;2023-02-01T05:29:09;98573.61;;;-7.80;36.05
43480;BME280;29067;35.492;-97.520;2023-02-01T05:31:37;98570.10;;;-7.45;36.38
43480;BME280;29067;35.492;-97.520;2023-02-01T05:34:06;98560.26;;;-9.41;38.20
43480;BME280;29067;35.492;-97.520;2023-02-01T05:36:34;98550.16;;;-6.45;36.10
43480;BME280;29067;35.492;-97.520;2023-02-01T05:39:02;98557.71;;;-5.83;36.98
43480;BME280;29067;35.492;-97.520;2023-02-01T05:41:37;98555.11;;;-6.47;36.36
43480;BME280;29067;35.492;-97.520;2023-02-01T05:44:05;98560.21;;;-5.02;35.87
43480;BME280;29067;35.492;-97.520;2023-02-01T05:46:38;98574.59;;;-6.66;36.68
43480;BME280;29067;35.492;-97.520;2023-02-01T05:49:06;98586.03;;;-8.26;38.61
43480;BME280;29067;35.492;-97.520;2023-02-01T05:51:34;98576.75;;;-7.28;38.61
43480;BME280;29067;35.492;-97.520;2023-02-01T05:54:11;98573.99;;;-8.52;39.48
43480;BME280;29067;35.492;-97.520;2023-02-01T05:56:39;98565.52;;;-7.52;39.11
43480;BME280;29067;35.492;-97.520;2023-02-01T05:59:07;98559.62;;;-6.65;37.35
43480;BME280;29067;35.492;-97.520;2023-02-01T06:01:35;98566.43;;;-7.10;38.83
43480;BME280;29067;35.492;-97.520;2023-02-01T06:04:14;98565.61;;;-6.23;38.18
43480;BME280;29067;35.492;-97.520;2023-02-01T06:06:42;98565.48;;;-6.92;37.87
43480;BME280;29067;35.492;-97.520;2023-02-01T06:09:11;98562.61;;;-5.80;36.66
43480;BME280;29067;35.492;-97.520;2023-02-01T06:11:39;98554.91;;;-5.85;35.94
43480;BME280;29067;35.492;-97.520;2023-02-01T06:14:07;98557.92;;;-8.04;38.12
43480;BME280;29067;35.492;-97.520;2023-02-01T06:16:35;98557.85;;;-9.00;38.73
43480;BME280;29067;35.492;-97.520;2023-02-01T06:19:03;98540.69;;;-8.16;38.51
43480;BME280;29067;35.492;-97.520;2023-02-01T06:21:32;98546.32;;;-6.70;37.52
43480;BME280;29067;35.492;-97.520;2023-02-01T06:24:00;98547.98;;;-8.20;38.78
43480;BME280;29067;35.492;-97.520;2023-02-01T06:26:29;98566.44;;;-7.70;37.80
43480;BME280;29067;35.492;-97.520;2023-02-01T06:28:57;98572.58;;;-7.39;38.42
43480;BME280;29067;35.492;-97.520;2023-02-01T06:31:25;98571.85;;;-7.69;39.22
43480;BME280;29067;35.492;-97.520;2023-02-01T06:33:54;98567.35;;;-6.24;38.01
43480;BME280;29067;35.492;-97.520;2023-02-01T06:36:22;98568.51;;;-6.90;38.34
43480;BME280;29067;35.492;-97.520;2023-02-01T06:38:50;98562.55;;;-7.04;38.21
43480;BME280;29067;35.492;-97.520;2023-02-01T06:41:19;98559.38;;;-6.91;38.11
43480;BME280;29067;35.492;-97.520;2023-02-01T06:43:47;98553.41;;;-4.92;37.63
43480;BME280;29067;35.492;-97.520;2023-02-01T06:46:16;98551.90;;;-6.07;37.85
43480;BME280;29067;35.492;-97.520;2023-02-01T06:48:44;98549.18;;;-5.78;38.09
43480;BME280;29067;35.492;-97.520;2023-02-01T06:51:22;98550.94;;;-6.90;39.04
43480;BME280;29067;35.492;-97.520;2023-02-01T06:53:51;98554.72;;;-6.60;39.50
43480;BME280;29067;35.492;-97.520;2023-02-01T06:56:19;98559.37;;;-6.05;38.92
43480;BME280;29067;35.492;-97.520;2023-02-01T06:58:47;98555.51;;;-7.28;38.10
43480;BME280;29067;35.492;-97.520;2023-02-01T07:01:16;98549.04;;;-5.84;36.92
43480;BME280;29067;35.492;-97.520;2023-02-01T07:03:47;98551.26;;;-6.33;37.60
43480;BME280;29067;35.492;-97.520;2023-02-01T07:06:19;98550.79;;;-5.13;36.62
43480;BME280;29067;35.492;-97.520;2023-02-01T07:08:47;98531.76;;;-6.60;37.29
43480;BME280;29067;35.492;-97.520;2023-02-01T07:11:19;98525.77;;;-7.11;38.20
43480;BME280;29067;35.492;-97.520;2023-02-01T07:13:47;98529.27;;;-7.10;37.77
43480;BME280;29067;35.492;-97.520;2023-02-01T07:16:17;98528.70;;;-5.96;37.00
43480;BME280;29067;35.492;-97.520;2023-02-01T07:18:46;98525.88;;;-5.88;37.24
43480;BME280;29067;35.492;-97.520;2023-02-01T07:21:14;98521.92;;;-6.08;37.05
43480;BME280;29067;35.492;-97.520;2023-02-01T07:23:42;98519.31;;;-6.01;37.05
43480;BME280;29067;35.492;-97.520;2023-02-01T07:26:12;98519.85;;;-6.03;36.68
43480;BME280;29067;35.492;-97.520;2023-02-01T07:28:50;98511.00;;;-6.37;36.53
43480;BME280;29067;35.492;-97.520;2023-02-01T07:31:19;98509.12;;;-4.93;36.44
43480;BME280;29067;35.492;-97.520;2023-02-01T07:33:47;98498.30;;;-6.12;36.54
43480;BME280;29067;35.492;-97.520;2023-02-01T07:36:16;98503.22;;;-6.59;36.79
43480;BME280;29067;35.492;-97.520;2023-02-01T07:38:44;98515.72;;;-5.89;36.93
43480;BME280;29067;35.492;-97.520;2023-02-01T07:41:13;98525.43;;;-7.60;37.71
43480;BME280;29067;35.492;-97.520;2023-02-01T07:43:41;98529.26;;;-9.26;40.20
43480;BME280;29067;35.492;-97.520;2023-02-01T07:46:14;98533.25;;;-7.75;38.47
43480;BME280;29067;35.492;-97.520;2023-02-01T07:48:42;98546.79;;;-9.61;39.64
43480;BME280;29067;35.492;-97.520;2023-02-01T07:51:12;98531.36;;;-6.68;38.36
43480;BME280;29067;35.492;-97.520;2023-02-01T07:53:42;98538.93;;;-6.65;38.22
43480;BME280;29067;35.492;-97.520;2023-02-01T07:56:13;98534.56;;;-6.96;37.63
43480;BME280;29067;35.492;-97.520;2023-02-01T07:58:46;98516.60;;;-5.83;36.42
43480;BME280;29067;35.492;-97.520;2023-02-01T08:01:16;98489.40;;;-5.57;37.65
43480;BME280;29067;35.492;-97.520;2023-02-01T08:03:44;98478.44;;;-6.27;38.32
43480;BME280;29067;35.492;-97.520;2023-02-01T08:06:13;98488.79;;;-6.12;38.49
43480;BME280;29067;35.492;-97.520;2023-02-01T08:08:41;98492.84;;;-6.42;37.72
43480;BME280;29067;35.492;-97.520;2023-02-01T08:11:14;98482.02;;;-5.84;37.91
43480;BME280;29067;35.492;-97.520;2023-02-01T08:13:43;98472.83;;;-6.16;38.10
43480;BME280;29067;35.492;-97.520;2023-02-01T08:16:13;98481.10;;;-6.50;37.30
43480;BME280;29067;35.492;-97.520;2023-02-01T08:18:41;98489.79;;;-5.54;36.60
43480;BME280;29067;35.492;-97.520;2023-02-01T08:21:19;98489.09;;;-6.52;37.80
43480;BME280;29067;35.492;-97.520;2023-02-01T08:23:59;98499.24;;;-6.58;37.79
43480;BME280;29067;35.492;-97.520;2023-02-01T08:26:27;98495.32;;;-5.30;37.27
43480;BME280;29067;35.492;-97.520;2023-02-01T08:28:56;98486.13;;;-6.36;37.59
43480;BME280;29067;35.492;-97.520;2023-02-01T08:31:32;98489.13;;;-6.04;37.42
43480;BME280;29067;35.492;-97.520;2023-02-01T08:34:07;98487.87;;;-6.96;38.20
43480;BME280;29067;35.492;-97.520;2023-02-01T08:36:38;98474.34;;;-6.10;36.81
43480;BME280;29067;35.492;-97.520;2023-02-01T08:39:06;98486.17;;;-7.56;38.48
43480;BME280;29067;35.492;-97.520;2023-02-01T08:41:35;98484.71;;;-8.02;38.27
43480;BME280;29067;35.492;-97.520;2023-02-01T08:44:03;98481.66;;;-5.55;37.40
43480;BME280;29067;35.492;-97.520;2023-02-01T08:46:32;98475.31;;;-5.67;37.01
43480;BME280;29067;35.492;-97.520;2023-02-01T08:49:00;98488.98;;;-6.70;38.54
43480;BME280;29067;35.492;-97.520;2023-02-01T08:51:28;98504.42;;;-6.80;37.91
43480;BME280;29067;35.492;-97.520;2023-02-01T08:53:57;98505.48;;;-5.15;36.59
43480;BME280;29067;35.492;-97.520;2023-02-01T08:56:25;98494.22;;;-6.02;37.47
43480;BME280;29067;35.492;-97.520;2023-02-01T08:58:53;98490.99;;;-6.27;37.01
43480;BME280;29067;35.492;-97.520;2023-02-01T09:01:22;98482.94;;;-7.24;37.64
43480;BME280;29067;35.492;-97.520;2023-02-01T09:03:51;98473.62;;;-4.62;36.57
43480;BME280;29067;35.492;-97.520;2023-02-01T09:06:25;98490.11;;;-7.31;38.24
43480;BME280;29067;35.492;-97.520;2023-02-01T09:08:53;98483.20;;;-5.09;36.24
43480;BME280;29067;35.492;-97.520;2023-02-01T09:11:21;98478.69;;;-5.31;36.22
43480;BME280;29067;35.492;-97.520;2023-02-01T09:13:49;98475.34;;;-4.99;35.83
43480;BME280;29067;35.492;-97.520;2023-02-01T09:16:18;98474.69;;;-4.99;36.38
43480;BME280;29067;35.492;-97.520;2023-02-01T09:18:47;98483.56;;;-5.90;35.90
43480;BME280;29067;35.492;-97.520;2023-02-01T09:21:15;98499.30;;;-8.59;37.81
43480;BME280;29067;35.492;-97.520;2023-02-01T09:23:43;98517.86;;;-8.90;38.39
43480;BME280;29067;35.492;-97.520;2023-02-01T09:26:11;98513.11;;;-7.42;37.58
43480;BME280;29067;35.492;-97.520;2023-02-01T09:28:39;98516.44;;;-8.12;37.43
43480;BME280;29067;35.492;-97.520;2023-02-01T09:31:08;98537.55;;;-9.85;39.11
43480;BME280;29067;35.492;-97.520;2023-02-01T09:33:36;98544.16;;;-8.88;39.45
43480;BME280;29067;35.492;-97.520;2023-02-01T09:36:05;98525.43;;;-7.70;38.10
43480;BME280;29067;35.492;-97.520;2023-02-01T09:38:34;98523.01;;;-7.69;38.07
43480;BME280;29067;35.492;-97.520;2023-02-01T09:41:06;98512.10;;;-6.80;37.58
43480;BME280;29067;35.492;-97.520;2023-02-01T09:43:41;98500.59;;;-5.07;36.34
43480;BME280;29067;35.492;-97.520;2023-02-01T09:46:21;98494.50;;;-6.18;36.74
43480;BME280;29067;35.492;-97.520;2023-02-01T09:48:55;98496.62;;;-8.95;38.82
43480;BME280;29067;35.492;-97.520;2023-02-01T09:51:25;98504.02;;;-9.33;39.58
43480;BME280;29067;35.492;-97.520;2023-02-01T09:54:01;98493.84;;;-7.75;37.99
43480;BME280;29067;35.492;-97.520;2023-02-01T09:56:40;98500.79;;;-8.06;38.27
43480;BME280;29067;35.492;-97.520;2023-02-01T09:59:23;98528.52;;;-9.42;40.64
43480;BME280;29067;35.492;-97.520;2023-02-01T10:01:54;98530.14;;;-7.32;38.43
43480;BME280;29067;35.492;-97.520;2023-02-01T10:04:23;98508.55;;;-7.51;38.56
43480;BME280;29067;35.492;-97.520;2023-02-01T10:07:01;98493.09;;;-6.87;39.75
43480;BME280;29067;35.492;-97.520;2023-02-01T10:09:46;98487.97;;;-6.40;38.92
43480;BME280;29067;35.492;-97.520;2023-02-01T10:12:54;98484.99;;;-7.53;38.07
43480;BME280;29067;35.492;-97.520;2023-02-01T10:15:34;98495.74;;;-7.75;38.53
43480;BME280;29067;35.492;-97.520;2023-02-01T10:18:34;98501.25;;;-6.08;37.40
43480;BME280;29067;35.492;-97.520;2023-02-01T10:21:14;98488.72;;;-7.78;38.25
43480;BME280;29067;35.492;-97.520;2023-02-01T10:24:05;98483.06;;;-6.46;36.93
43480;BME280;29067;35.492;-97.520;2023-02-01T10:26:44;98462.96;;;-8.45;38.99
43480;BME280;29067;35.492;-97.520;2023-02-01T10:29:16;98457.98;;;-5.48;37.52
43480;BME280;29067;35.492;-97.520;2023-02-01T10:31:46;98472.56;;;-5.71;37.23
43480;BME280;29067;35.492;-97.520;2023-02-01T10:34:19;98488.92;;;-7.58;37.01
43480;BME280;29067;35.492;-97.520;2023-02-01T10:36:56;98493.49;;;-5.59;36.22
43480;BME280;29067;35.492;-97.520;2023-02-01T10:39:25;98488.78;;;-5.69;35.87
43480;BME280;29067;35.492;-97.520;2023-02-01T10:41:55;98488.63;;;-6.29;35.53
43480;BME280;29067;35.492;-97.520;2023-02-01T10:44:27;98490.52;;;-7.17;36.32
43480;BME280;29067;35.492;-97.520;2023-02-01T10:46:56;98470.64;;;-7.57;36.92
43480;BME280;29067;35.492;-97.520;2023-02-01T10:49:32;98467.98;;;-7.01;36.37
43480;BME280;29067;35.492;-97.520;2023-02-01T10:52:15;98468.31;;;-5.52;36.01
43480;BME280;29067;35.492;-97.520;2023-02-01T10:54:44;98460.18;;;-7.91;36.34
43480;BME280;29067;35.492;-97.520;2023-02-01T10:57:22;98460.55;;;-6.83;37.26
43480;BME280;29067;35.492;-97.520;2023-02-01T10:59:51;98489.33;;;-6.77;36.91
43480;BME280;29067;35.492;-97.520;2023-02-01T11:02:26;98482.25;;;-7.95;38.83
43480;BME280;29067;35.492;-97.520;2023-02-01T11:05:01;98476.79;;;-6.69;37.89
43480;BME280;29067;35.492;-97.520;2023-02-01T11:07:30;98477.20;;;-7.05;37.45
43480;BME280;29067;35.492;-97.520;2023-02-01T11:09:59;98464.70;;;-6.68;37.37
43480;BME280;29067;35.492;-97.520;2023-02-01T11:12:30;98450.51;;;-5.45;37.18
43480;BME280;29067;35.492;-97.520;2023-02-01T11:15:13;98449.09;;;-5.75;35.60
43480;BME280;29067;35.492;-97.520;2023-02-01T11:17:44;98445.15;;;-4.84;35.04
43480;BME280;29067;35.492;-97.520;2023-02-01T11:20:15;98452.90;;;-6.70;36.23
43480;BME280;29067;35.492;-97.520;2023-02-01T11:22:48;98470.55;;;-6.13;37.15
43480;BME280;29067;35.492;-97.520;2023-02-01T11:25:21;98474.59;;;-6.62;36.56
43480;BME280;29067;35.492;-97.520;2023-02-01T11:27:49;98472.90;;;-5.81;36.43
43480;BME280;29067;35.492;-97.520;2023-02-01T11:30:22;98493.79;;;-6.48;36.65
43480;BME280;29067;35.492;-97.520;2023-02-01T11:32:55;98479.18;;;-6.43;36.92
43480;BME280;29067;35.492;-97.520;2023-02-01T11:35:23;98473.17;;;-8.71;38.31
43480;BME280;29067;35.492;-97.520;2023-02-01T11:37:55;98480.02;;;-8.10;39.35
43480;BME280;29067;35.492;-97.520;2023-02-01T11:40:28;98479.15;;;-7.51;38.88
43480;BME280;29067;35.492;-97.520;2023-02-01T11:42:58;98485.50;;;-7.06;38.95
43480;BME280;29067;35.492;-97.520;2023-02-01T11:45:29;98469.45;;;-7.94;39.19
43480;BME280;29067;35.492;-97.520;2023-02-01T11:47:59;98451.52;;;-7.79;37.90
43480;BME280;29067;35.492;-97.520;2023-02-01T11:50:34;98420.71;;;-8.93;40.79
43480;BME280;29067;35.492;-97.520;2023-02-01T11:53:29;98449.81;;;-8.42;39.35
43480;BME280;29067;35.492;-97.520;2023-02-01T11:56:08;98484.44;;;-6.86;38.68
43480;BME280;29067;35.492;-97.520;2023-02-01T11:59:07;98475.19;;;-7.83;39.22
43480;BME280;29067;35.492;-97.520;2023-02-01T12:03:26;98460.59;;;-7.43;38.36
43480;BME280;29067;35.492;-97.520;2023-02-01T12:06:04;98451.73;;;-8.00;38.75
43480;BME280;29067;35.492;-97.520;2023-02-01T12:08:58;98435.10;;;-7.92;36.84
43480;BME280;29067;35.492;-97.520;2023-02-01T12:11:43;98440.21;;;-6.70;37.43
43480;BME280;29067;35.492;-97.520;2023-02-01T12:14:28;98434.60;;;-8.04;39.08
43480;BME280;29067;35.492;-97.520;2023-02-01T12:17:22;98433.18;;;-8.04;38.54
43480;BME280;29067;35.492;-97.520;2023-02-01T12:20:09;98456.59;;;-7.01;37.72
43480;BME280;29067;35.492;-97.520;2023-02-01T12:22:48;98458.87;;;-7.89;38.06
43480;BME280;29067;35.492;-97.520;2023-02-01T12:25:27;98465.29;;;-7.63;37.35
43480;BME280;29067;35.492;-97.520;2023-02-01T12:28:24;98472.33;;;-7.38;37.56
43480;BME280;29067;35.492;-97.520;2023-02-01T12:31:07;98477.42;;;-6.20;37.52
43480;BME280;29067;35.492;-97.520;2023-02-01T12:33:48;98479.01;;;-7.78;38.48
43480;BME280;29067;35.492;-97.520;2023-02-01T12:36:24;98477.40;;;-6.45;38.39
43480;BME280;29067;35.492;-97.520;2023-02-01T12:39:01;98484.46;;;-7.18;37.49
43480;BME280;29067;35.492;-97.520;2023-02-01T12:41:43;98467.39;;;-8.45;38.51
43480;BME280;29067;35.492;-97.520;2023-02-01T12:44:21;98470.30;;;-10.28;40.99
43480;BME280;29067;35.492;-97.520;2023-02-01T12:46:55;98477.46;;;-9.72;40.88
43480;BME280;29067;35.492;-97.520;2023-02-01T12:49:32;98502.78;;;-7.89;39.96
43480;BME280;29067;35.492;-97.520;2023-02-01T12:52:06;98496.58;;;-11.18;42.15
43480;BME280;29067;35.492;-97.520;2023-02-01T12:54:38;98443.33;;;-10.10;40.93
43480;BME280;29067;35.492;-97.520;2023-02-01T12:57:11;98424.96;;;-9.25;40.15
43480;BME280;29067;35.492;-97.520;2023-02-01T12:59:46;98421.32;;;-8.05;40.42
43480;BME280;29067;35.492;-97.520;2023-02-01T13:02:22;98424.29;;;-8.53;39.95
43480;BME280;29067;35.492;-97.520;2023-02-01T13:05:08;98427.55;;;-8.04;39.70
43480;BME280;29067;35.492;-97.520;2023-02-01T13:07:49;98420.07;;;-9.03;39.24
43480;BME280;29067;35.492;-97.520;2023-02-01T13:10:22;98416.07;;;-9.11;39.17
43480;BME280;29067;35.492;-97.520;2023-02-01T13:12:56;98437.21;;;-8.67;39.10